createdAt,value
2019-02-08T00:00:56.810Z,100634.23
2019-02-08T00:05:04.596Z,100625.59
2019-02-08T00:09:12.194Z,100622.09
2019-02-08T00:13:20.285Z,100621.35
2019-02-08T00:17:28.432Z,100612.47
2019-02-08T00:21:36.311Z,100603.50
2019-02-08T00:25:43.808Z,100599.17
2019-02-08T00:29:51.714Z,100595.41
2019-02-08T00:34:00.063Z,100590.91
2019-02-08T00:38:07.646Z,100590.84
2019-02-08T00:42:15.540Z,100592.68
2019-02-08T00:46:23.128Z,100586.97
2019-02-08T00:50:31.275Z,100588.36
2019-02-08T00:54:39.646Z,100578.92
2019-02-08T00:58:47.575Z,100577.23
2019-02-08T01:02:55.591Z,100574.61
2019-02-08T01:07:03.487Z,100574.91
2019-02-08T01:11:11.651Z,100569.42
2019-02-08T01:15:20.896Z,100562.25
2019-02-08T01:19:28.905Z,100559.08
2019-02-08T01:23:41.205Z,100564.80
2019-02-08T01:27:46.620Z,100559.39
2019-02-08T01:31:54.357Z,100557.09
2019-02-08T01:36:02.051Z,100556.61
2019-02-08T01:40:13.756Z,100559.86
2019-02-08T01:44:22.687Z,100557.16
2019-02-08T01:48:30.307Z,100551.66
2019-02-08T01:52:38.252Z,100544.97
2019-02-08T01:56:46.141Z,100541.24
2019-02-08T02:00:54.263Z,100537.89
2019-02-08T02:05:01.876Z,100541.08
2019-02-08T02:09:10.333Z,100544.38
2019-02-08T02:13:18.803Z,100547.61
2019-02-08T02:17:26.715Z,100544.28
2019-02-08T02:21:34.608Z,100543.23
2019-02-08T02:25:42.532Z,100544.12
2019-02-08T02:29:50.428Z,100546.83
2019-02-08T02:33:58.329Z,100542.91
2019-02-08T02:38:06.267Z,100549.63
2019-02-08T02:42:14.207Z,100566.02
2019-02-08T02:46:21.709Z,100560.16
2019-02-08T02:50:29.777Z,100558.91
2019-02-08T02:54:38.161Z,100558.92
2019-02-08T02:58:46.061Z,100553.67
2019-02-08T03:02:54.063Z,100557.23
2019-02-08T03:07:02.044Z,100563.88
2019-02-08T03:11:10.515Z,100556.08
2019-02-08T03:15:19.872Z,100558.01
2019-02-08T03:19:27.379Z,100560.16
2019-02-08T03:23:35.282Z,100548.38
2019-02-08T03:27:42.900Z,100547.58
2019-02-08T03:31:50.682Z,100548.38
2019-02-08T03:35:58.222Z,100554.31
2019-02-08T03:40:08.712Z,100549.12
2019-02-08T03:44:16.423Z,100547.67
2019-02-08T03:48:24.112Z,100543.33
2019-02-08T03:52:31.997Z,100536.84
2019-02-08T03:56:39.901Z,100529.67
2019-02-08T04:01:06.371Z,100533.31
2019-02-08T04:05:15.476Z,100530.82
2019-02-08T04:09:24.002Z,100524.73
2019-02-08T04:13:31.691Z,100526.88
2019-02-08T04:17:39.406Z,100531.11
2019-02-08T04:21:46.989Z,100530.81
2019-02-08T04:25:54.876Z,100532.97
2019-02-08T04:30:02.775Z,100531.50
2019-02-08T04:34:10.443Z,100537.30
2019-02-08T04:38:18.606Z,100530.89
2019-02-08T04:42:26.623Z,100535.94
2019-02-08T04:46:34.523Z,100534.98
2019-02-08T04:50:42.424Z,100536.36
2019-02-08T04:54:50.330Z,100544.50
2019-02-08T04:58:58.692Z,100545.02
2019-02-08T05:03:07.135Z,100538.09
2019-02-08T05:07:14.745Z,100533.38
2019-02-08T05:11:22.730Z,100534.84
2019-02-08T05:15:30.542Z,100534.98
2019-02-08T05:19:38.052Z,100538.17
2019-02-08T05:23:45.674Z,100544.72
2019-02-08T05:27:53.685Z,100547.65
2019-02-08T05:32:01.375Z,100545.51
2019-02-08T05:36:08.900Z,100549.75
2019-02-08T05:40:16.652Z,100557.16
2019-02-08T05:44:24.560Z,100566.52
2019-02-08T05:48:32.479Z,100559.70
2019-02-08T05:52:40.389Z,100568.83
2019-02-08T05:56:48.282Z,100572.83
2019-02-08T06:00:57.941Z,100570.44
2019-02-08T06:05:07.286Z,100572.05
2019-02-08T06:09:15.299Z,100579.39
2019-02-08T06:13:23.280Z,100580.84
2019-02-08T06:17:31.174Z,100580.93
2019-02-08T06:21:38.778Z,100578.56
2019-02-08T06:25:46.496Z,100580.13
2019-02-08T06:29:54.401Z,100576.91
2019-02-08T06:34:02.304Z,100580.34
2019-02-08T06:38:10.866Z,100574.91
2019-02-08T06:42:18.769Z,100570.57
2019-02-08T06:46:26.666Z,100574.74
2019-02-08T06:50:34.578Z,100573.83
2019-02-08T06:54:42.483Z,100575.88
2019-02-08T06:58:56.359Z,100574.39
2019-02-08T07:03:22.048Z,100581.88
2019-02-08T07:07:44.554Z,100571.59
2019-02-08T07:12:08.786Z,100569.88
2019-02-08T07:16:26.611Z,100564.59
2019-02-08T07:21:00.537Z,100569.98
2019-02-08T07:25:30.792Z,100579.34
2019-02-08T07:29:51.481Z,100576.91
2019-02-08T07:34:16.806Z,100579.02
2019-02-08T07:38:31.690Z,100585.14
2019-02-08T07:43:14.080Z,100583.63
2019-02-08T07:47:41.745Z,100582.25
2019-02-08T07:52:11.326Z,100575.74
2019-02-08T07:56:40.107Z,100578.81
2019-02-08T08:01:00.770Z,100582.27
2019-02-08T08:05:26.635Z,100565.17
2019-02-08T08:09:53.205Z,100585.50
2019-02-08T08:14:16.845Z,100590.13
2019-02-08T08:18:46.457Z,100589.41
2019-02-08T08:23:13.292Z,100593.23
2019-02-08T08:27:55.680Z,100604.98
2019-02-08T08:32:14.857Z,100606.46
2019-02-08T08:37:21.258Z,100614.02
2019-02-08T08:42:13.646Z,100614.29
2019-02-08T08:47:11.239Z,100612.69
2019-02-08T08:52:14.321Z,100616.56
2019-02-08T08:56:46.154Z,100625.41
2019-02-08T09:01:43.606Z,100623.36
2019-02-08T09:06:37.421Z,100630.03
2019-02-08T09:11:20.278Z,100632.09
2019-02-08T09:16:11.031Z,100630.12
2019-02-08T09:21:13.128Z,100626.57
2019-02-08T09:26:08.521Z,100624.13
2019-02-08T09:30:59.320Z,100617.55
2019-02-08T09:35:34.698Z,100615.36
2019-02-08T09:40:25.808Z,100611.83
2019-02-08T09:45:29.360Z,100614.89
2019-02-08T09:50:19.039Z,100609.23
2019-02-08T09:54:58.594Z,100609.34
2019-02-08T09:59:58.139Z,100598.69
2019-02-08T10:04:43.983Z,100591.55
2019-02-08T10:09:31.191Z,100587.80
2019-02-08T10:14:14.435Z,100581.89
2019-02-08T10:19:01.036Z,100582.03
2019-02-08T10:23:49.281Z,100563.83
2019-02-08T10:28:32.074Z,100567.95
2019-02-08T10:33:24.958Z,100561.50
2019-02-08T10:38:25.319Z,100554.84
2019-02-08T10:43:26.918Z,100558.44
2019-02-08T10:48:09.980Z,100551.48
2019-02-08T10:53:12.191Z,100543.45
2019-02-08T10:57:57.330Z,100542.11
2019-02-08T11:02:50.690Z,100541.17
2019-02-08T11:07:34.516Z,100538.79
2019-02-08T11:12:47.039Z,100529.69
2019-02-08T11:17:29.960Z,100527.32
2019-02-08T11:21:37.891Z,100520.25
2019-02-08T11:25:45.896Z,100521.60
2019-02-08T11:29:53.864Z,100518.20
2019-02-08T11:34:01.776Z,100518.57
2019-02-08T11:38:09.773Z,100522.02
2019-02-08T11:42:17.692Z,100517.95
2019-02-08T11:46:25.207Z,100510.97
2019-02-08T11:50:32.719Z,100506.60
2019-02-08T11:54:40.621Z,100502.48
2019-02-08T11:58:48.220Z,100510.42
2019-02-08T12:02:55.921Z,100508.64
2019-02-08T12:07:03.437Z,100504.38
2019-02-08T12:11:10.934Z,100510.00
2019-02-08T12:15:18.736Z,100498.95
2019-02-08T12:19:26.642Z,100504.09
2019-02-08T12:23:34.570Z,100504.41
2019-02-08T12:27:42.498Z,100504.41
2019-02-08T12:31:50.094Z,100500.56
2019-02-08T12:35:58.013Z,100500.69
2019-02-08T12:40:06.732Z,100500.59
2019-02-08T12:44:14.524Z,100508.61
2019-02-08T12:48:23.120Z,100512.95
2019-02-08T12:52:30.826Z,100512.05
2019-02-08T12:56:45.319Z,100517.38
2019-02-08T13:00:48.184Z,100513.20
2019-02-08T13:04:55.770Z,100525.19
2019-02-08T13:09:04.503Z,100528.19
2019-02-08T13:13:12.411Z,100532.68
2019-02-08T13:17:20.296Z,100536.09
2019-02-08T13:21:27.996Z,100538.41
2019-02-08T13:25:35.712Z,100541.42
2019-02-08T13:29:43.601Z,100546.49
2019-02-08T13:33:52.465Z,100552.18
2019-02-08T13:38:00.290Z,100555.51
2019-02-08T13:42:08.179Z,100555.69
2019-02-08T13:46:15.791Z,100559.54
2019-02-08T13:50:25.512Z,100565.35
2019-02-08T13:54:33.409Z,100557.77
2019-02-08T13:58:41.303Z,100555.13
2019-02-08T14:02:49.198Z,100563.17
2019-02-08T14:06:57.090Z,100560.05
2019-02-08T14:11:05.070Z,100557.69
2019-02-08T14:15:12.990Z,100557.20
2019-02-08T14:19:20.626Z,100555.63
2019-02-08T14:23:28.223Z,100553.64
2019-02-08T14:27:39.011Z,100555.29
2019-02-08T14:31:46.710Z,100549.36
2019-02-08T14:35:55.802Z,100556.92
2019-02-08T14:40:08.525Z,100555.42
2019-02-08T14:44:16.426Z,100557.75
2019-02-08T14:48:24.131Z,100560.23
2019-02-08T14:52:32.055Z,100573.42
2019-02-08T14:56:39.850Z,100576.98
2019-02-08T15:00:47.347Z,100576.28
2019-02-08T15:04:55.233Z,100574.94
2019-02-08T15:09:02.956Z,100578.42
2019-02-08T15:13:11.171Z,100582.02
2019-02-08T15:17:19.098Z,100593.29
2019-02-08T15:21:27.013Z,100595.47
2019-02-08T15:25:34.691Z,100605.81
2019-02-08T15:29:42.210Z,100601.94
2019-02-08T15:33:50.134Z,100611.05
2019-02-08T15:37:57.783Z,100609.77
2019-02-08T15:42:06.155Z,100622.98
2019-02-08T15:46:13.667Z,100621.91
2019-02-08T15:50:24.133Z,100621.73
2019-02-08T15:54:34.303Z,100622.35
2019-02-08T15:58:41.917Z,100623.00
2019-02-08T16:02:49.723Z,100627.18
2019-02-08T16:06:57.499Z,100628.50
2019-02-08T16:11:05.701Z,100628.05
2019-02-08T16:15:21.519Z,100625.83
2019-02-08T16:19:29.423Z,100626.16
2019-02-08T16:23:37.341Z,100632.08
2019-02-08T16:27:44.942Z,100637.75
2019-02-08T16:31:52.445Z,100641.81
2019-02-08T16:36:00.256Z,100648.75
2019-02-08T16:40:09.612Z,100652.92
2019-02-08T16:44:17.248Z,100650.45
2019-02-08T16:48:25.266Z,100651.31
2019-02-08T16:52:33.197Z,100651.73
2019-02-08T16:56:41.089Z,100646.23
2019-02-08T17:00:48.700Z,100652.59
2019-02-08T17:04:56.429Z,100655.10
2019-02-08T17:09:05.967Z,100655.36
2019-02-08T17:13:13.669Z,100659.12
2019-02-08T17:17:21.278Z,100663.39
2019-02-08T17:21:28.812Z,100663.92
2019-02-08T17:25:37.284Z,100668.34
2019-02-08T17:29:46.204Z,100668.58
2019-02-08T17:33:55.084Z,100669.97
2019-02-08T17:38:02.700Z,100680.92
2019-02-08T17:42:11.066Z,100673.56
2019-02-08T17:46:18.582Z,100671.20
2019-02-08T17:50:28.418Z,100680.92
2019-02-08T17:54:36.340Z,100674.51
2019-02-08T17:58:46.306Z,100677.06
2019-02-08T18:02:53.828Z,100679.55
2019-02-08T18:07:01.344Z,100680.19
2019-02-08T18:11:08.965Z,100675.63
2019-02-08T18:15:19.335Z,100675.75
2019-02-08T18:19:27.239Z,100676.02
2019-02-08T18:23:35.149Z,100677.36
2019-02-08T18:27:44.108Z,100682.16
2019-02-08T18:31:52.034Z,100679.36
2019-02-08T18:36:00.974Z,100683.28
2019-02-08T18:40:10.714Z,100688.70
2019-02-08T18:44:18.314Z,100698.77
2019-02-08T18:48:27.579Z,100694.52
2019-02-08T18:52:36.342Z,100702.65
2019-02-08T18:56:43.869Z,100702.41
2019-02-08T19:00:52.343Z,100711.37
2019-02-08T19:05:00.282Z,100714.07
2019-02-08T19:09:09.599Z,100714.38
2019-02-08T19:13:17.453Z,100720.12
2019-02-08T19:17:25.068Z,100718.50
2019-02-08T19:21:32.602Z,100725.83
2019-02-08T19:25:41.638Z,100727.00
2019-02-08T19:29:49.576Z,100726.00
2019-02-08T19:33:57.309Z,100729.00
2019-02-08T19:38:05.329Z,100732.78
2019-02-08T19:42:13.260Z,100730.32
2019-02-08T19:46:20.808Z,100727.76
2019-02-08T19:50:33.756Z,100726.38
2019-02-08T19:54:41.366Z,100723.98
2019-02-08T19:58:48.995Z,100718.56
2019-02-08T20:02:56.717Z,100721.13
2019-02-08T20:07:05.002Z,100719.81
2019-02-08T20:11:13.051Z,100720.71
2019-02-08T20:15:21.372Z,100721.27
2019-02-08T20:19:28.890Z,100721.58
2019-02-08T20:23:36.780Z,100724.44
2019-02-08T20:27:44.316Z,100720.09
2019-02-08T20:31:52.259Z,100721.27
2019-02-08T20:36:00.264Z,100723.64
2019-02-08T20:40:10.542Z,100718.38
2019-02-08T20:44:18.275Z,100714.75
2019-02-08T20:48:26.164Z,100717.83
2019-02-08T20:52:33.882Z,100721.13
2019-02-08T20:56:41.399Z,100722.35
2019-02-08T21:00:52.094Z,100721.16
2019-02-08T21:04:59.697Z,100722.70
2019-02-08T21:09:12.727Z,100722.70
2019-02-08T21:13:20.433Z,100724.17
2019-02-08T21:17:28.086Z,100725.06
2019-02-08T21:21:35.812Z,100732.50
2019-02-08T21:25:50.401Z,100739.34
2019-02-08T21:29:53.493Z,100738.76
2019-02-08T21:34:01.401Z,100739.16
2019-02-08T21:38:10.010Z,100735.13
2019-02-08T21:42:17.527Z,100736.55
2019-02-08T21:46:25.489Z,100729.19
2019-02-08T21:50:33.517Z,100724.98
2019-02-08T21:54:41.228Z,100722.47
2019-02-08T21:58:48.857Z,100724.92
2019-02-08T22:02:57.246Z,100720.02
2019-02-08T22:07:05.054Z,100728.27
2019-02-08T22:11:12.668Z,100728.48
2019-02-08T22:15:28.514Z,100724.39
2019-02-08T22:19:36.084Z,100730.77
2019-02-08T22:23:43.983Z,100731.59
2019-02-08T22:27:51.997Z,100737.36
2019-02-08T22:31:59.593Z,100731.85
2019-02-08T22:36:07.282Z,100730.80
2019-02-08T22:40:17.143Z,100724.33
2019-02-08T22:44:24.646Z,100728.06
2019-02-08T22:48:32.169Z,100728.27
2019-02-08T22:52:40.842Z,100726.19
2019-02-08T22:56:48.758Z,100726.19
2019-02-08T23:01:30.400Z,100729.25
2019-02-08T23:05:45.238Z,100726.52
2019-02-08T23:09:49.130Z,100725.15
2019-02-08T23:13:56.739Z,100720.41
2019-02-08T23:18:05.291Z,100724.88
2019-02-08T23:22:13.407Z,100719.82
2019-02-08T23:26:21.081Z,100719.58
2019-02-08T23:30:29.176Z,100718.39
2019-02-08T23:34:36.763Z,100724.22
2019-02-08T23:38:44.721Z,100721.27
2019-02-08T23:42:52.583Z,100716.69
2019-02-08T23:47:01.467Z,100723.52
2019-02-08T23:51:10.161Z,100722.53
2019-02-08T23:55:20.977Z,100732.89
2019-02-08T23:59:28.498Z,100735.75
